sensor_id;sensor_type;location;lat;lon;timestamp;P1;durP1;ratioP1;P2;durP2;ratioP2
51616;SDS011;37697;52.588;13.394;2023-04-28T00:01:49;16.20;;;9.70;;
51616;SDS011;37697;52.588;13.394;2023-04-28T00:07:14;16.30;;;9.80;;
51616;SDS011;37697;52.588;13.394;2023-04-28T00:12:40;16.60;;;9.90;;
51616;SDS011;37697;52.588;13.394;2023-04-28T00:17:58;16.30;;;9.20;;
51616;SDS011;37697;52.588;13.394;2023-04-28T00:23:24;15.00;;;8.90;;
51616;SDS011;37697;52.588;13.394;2023-04-28T00:28:50;18.40;;;9.20;;
51616;SDS011;37697;52.588;13.394;2023-04-28T00:34:16;16.70;;;9.00;;
51616;SDS011;37697;52.588;13.394;2023-04-28T00:39:42;13.30;;;8.70;;
51616;SDS011;37697;52.588;13.394;2023-04-28T00:45:08;16.30;;;9.10;;
51616;SDS011;37697;52.588;13.394;2023-04-28T00:50:34;15.30;;;8.50;;
51616;SDS011;37697;52.588;13.394;2023-04-28T00:56:01;14.60;;;9.10;;
51616;SDS011;37697;52.588;13.394;2023-04-28T01:01:27;13.80;;;8.60;;
51616;SDS011;37697;52.588;13.394;2023-04-28T01:06:54;14.90;;;8.10;;
51616;SDS011;37697;52.588;13.394;2023-04-28T01:12:20;14.80;;;7.60;;
51616;SDS011;37697;52.588;13.394;2023-04-28T01:17:46;12.80;;;7.80;;
51616;SDS011;37697;52.588;13.394;2023-04-28T01:23:12;13.70;;;7.80;;
51616;SDS011;37697;52.588;13.394;2023-04-28T01:28:39;13.20;;;7.40;;
51616;SDS011;37697;52.588;13.394;2023-04-28T01:34:05;12.10;;;7.20;;
51616;SDS011;37697;52.588;13.394;2023-04-28T01:39:31;10.90;;;7.10;;
51616;SDS011;37697;52.588;13.394;2023-04-28T01:44:57;12.20;;;6.90;;
51616;SDS011;37697;52.588;13.394;2023-04-28T01:50:21;10.90;;;7.10;;
51616;SDS011;37697;52.588;13.394;2023-04-28T01:55:47;11.10;;;6.90;;
51616;SDS011;37697;52.588;13.394;2023-04-28T02:01:13;10.90;;;6.10;;
51616;SDS011;37697;52.588;13.394;2023-04-28T02:06:39;9.90;;;6.20;;
51616;SDS011;37697;52.588;13.394;2023-04-28T02:12:05;11.10;;;5.90;;
51616;SDS011;37697;52.588;13.394;2023-04-28T02:17:30;12.40;;;6.30;;
51616;SDS011;37697;52.588;13.394;2023-04-28T02:22:55;9.90;;;6.50;;
51616;SDS011;37697;52.588;13.394;2023-04-28T02:28:21;8.50;;;5.60;;
51616;SDS011;37697;52.588;13.394;2023-04-28T02:33:47;11.30;;;5.50;;
51616;SDS011;37697;52.588;13.394;2023-04-28T02:39:13;8.70;;;4.90;;
51616;SDS011;37697;52.588;13.394;2023-04-28T02:44:39;9.80;;;5.00;;
51616;SDS011;37697;52.588;13.394;2023-04-28T02:50:06;7.90;;;4.80;;
51616;SDS011;37697;52.588;13.394;2023-04-28T02:55:33;9.30;;;5.10;;
51616;SDS011;37697;52.588;13.394;2023-04-28T03:00:59;7.70;;;4.80;;
51616;SDS011;37697;52.588;13.394;2023-04-28T03:06:25;9.20;;;5.00;;
51616;SDS011;37697;52.588;13.394;2023-04-28T03:11:44;7.30;;;4.90;;
51616;SDS011;37697;52.588;13.394;2023-04-28T03:17:10;8.90;;;4.60;;
51616;SDS011;37697;52.588;13.394;2023-04-28T03:22:36;9.50;;;4.70;;
51616;SDS011;37697;52.588;13.394;2023-04-28T03:28:02;9.20;;;5.10;;
51616;SDS011;37697;52.588;13.394;2023-04-28T03:33:28;7.60;;;4.40;;
51616;SDS011;37697;52.588;13.394;2023-04-28T03:38:52;9.00;;;5.10;;
51616;SDS011;37697;52.588;13.394;2023-04-28T03:44:18;8.30;;;4.20;;
51616;SDS011;37697;52.588;13.394;2023-04-28T03:49:44;7.10;;;4.20;;
51616;SDS011;37697;52.588;13.394;2023-04-28T03:55:10;7.30;;;4.10;;
51616;SDS011;37697;52.588;13.394;2023-04-28T04:00:36;8.50;;;4.20;;
51616;SDS011;37697;52.588;13.394;2023-04-28T04:06:01;8.40;;;4.90;;
51616;SDS011;37697;52.588;13.394;2023-04-28T04:11:28;7.50;;;4.10;;
51616;SDS011;37697;52.588;13.394;2023-04-28T04:16:53;8.20;;;4.30;;
51616;SDS011;37697;52.588;13.394;2023-04-28T04:22:19;8.40;;;4.20;;
51616;SDS011;37697;52.588;13.394;2023-04-28T04:27:45;10.10;;;4.30;;
51616;SDS011;37697;52.588;13.394;2023-04-28T04:33:11;9.10;;;4.30;;
51616;SDS011;37697;52.588;13.394;2023-04-28T04:38:37;8.80;;;4.40;;
51616;SDS011;37697;52.588;13.394;2023-04-28T04:44:01;8.90;;;4.60;;
51616;SDS011;37697;52.588;13.394;2023-04-28T04:49:27;9.10;;;4.20;;
51616;SDS011;37697;52.588;13.394;2023-04-28T04:54:53;7.50;;;3.80;;
51616;SDS011;37697;52.588;13.394;2023-04-28T05:00:10;10.10;;;4.10;;
51616;SDS011;37697;52.588;13.394;2023-04-28T05:05:37;7.70;;;3.90;;
51616;SDS011;37697;52.588;13.394;2023-04-28T05:11:03;6.20;;;4.00;;
51616;SDS011;37697;52.588;13.394;2023-04-28T05:16:29;8.00;;;4.60;;
51616;SDS011;37697;52.588;13.394;2023-04-28T05:21:48;10.20;;;3.90;;
51616;SDS011;37697;52.588;13.394;2023-04-28T05:27:05;8.60;;;3.80;;
51616;SDS011;37697;52.588;13.394;2023-04-28T05:32:32;6.10;;;3.70;;
51616;SDS011;37697;52.588;13.394;2023-04-28T05:37:59;9.60;;;3.50;;
51616;SDS011;37697;52.588;13.394;2023-04-28T05:43:26;9.90;;;4.00;;
51616;SDS011;37697;52.588;13.394;2023-04-28T05:48:52;7.70;;;3.40;;
51616;SDS011;37697;52.588;13.394;2023-04-28T05:54:18;7.00;;;3.70;;
51616;SDS011;37697;52.588;13.394;2023-04-28T05:59:44;7.40;;;3.60;;
51616;SDS011;37697;52.588;13.394;2023-04-28T06:05:09;9.80;;;3.40;;
51616;SDS011;37697;52.588;13.394;2023-04-28T06:10:36;8.40;;;3.70;;
51616;SDS011;37697;52.588;13.394;2023-04-28T06:16:02;8.10;;;3.80;;
51616;SDS011;37697;52.588;13.394;2023-04-28T06:21:29;7.80;;;3.80;;
51616;SDS011;37697;52.588;13.394;2023-04-28T06:26:54;8.10;;;3.50;;
51616;SDS011;37697;52.588;13.394;2023-04-28T06:32:20;7.80;;;3.80;;
51616;SDS011;37697;52.588;13.394;2023-04-28T06:37:47;8.40;;;3.60;;
51616;SDS011;37697;52.588;13.394;2023-04-28T06:43:12;9.50;;;3.10;;
51616;SDS011;37697;52.588;13.394;2023-04-28T06:48:38;5.10;;;3.00;;
51616;SDS011;37697;52.588;13.394;2023-04-28T06:54:03;7.40;;;3.70;;
51616;SDS011;37697;52.588;13.394;2023-04-28T06:59:29;8.40;;;3.30;;
51616;SDS011;37697;52.588;13.394;2023-04-28T07:04:55;8.50;;;3.20;;
51616;SDS011;37697;52.588;13.394;2023-04-28T07:10:21;10.50;;;3.30;;
51616;SDS011;37697;52.588;13.394;2023-04-28T07:15:47;7.70;;;2.80;;
51616;SDS011;37697;52.588;13.394;2023-04-28T07:21:13;6.20;;;2.40;;
51616;SDS011;37697;52.588;13.394;2023-04-28T07:26:39;5.50;;;2.10;;
51616;SDS011;37697;52.588;13.394;2023-04-28T07:32:05;7.50;;;2.60;;
51616;SDS011;37697;52.588;13.394;2023-04-28T07:37:34;7.10;;;2.70;;
51616;SDS011;37697;52.588;13.394;2023-04-28T07:42:59;19.30;;;3.10;;
51616;SDS011;37697;52.588;13.394;2023-04-28T07:48:25;5.60;;;2.60;;
51616;SDS011;37697;52.588;13.394;2023-04-28T07:53:51;6.80;;;3.50;;
51616;SDS011;37697;52.588;13.394;2023-04-28T07:59:18;8.50;;;3.50;;
51616;SDS011;37697;52.588;13.394;2023-04-28T08:04:44;10.40;;;3.90;;
51616;SDS011;37697;52.588;13.394;2023-04-28T08:10:10;6.70;;;3.00;;
51616;SDS011;37697;52.588;13.394;2023-04-28T08:15:36;5.00;;;3.20;;
51616;SDS011;37697;52.588;13.394;2023-04-28T08:21:03;10.60;;;3.60;;
51616;SDS011;37697;52.588;13.394;2023-04-28T08:26:22;6.20;;;3.10;;
51616;SDS011;37697;52.588;13.394;2023-04-28T08:31:48;7.10;;;3.00;;
51616;SDS011;37697;52.588;13.394;2023-04-28T08:37:14;8.60;;;3.20;;
51616;SDS011;37697;52.588;13.394;2023-04-28T08:42:40;6.70;;;3.30;;
51616;SDS011;37697;52.588;13.394;2023-04-28T08:48:07;4.90;;;2.40;;
51616;SDS011;37697;52.588;13.394;2023-04-28T08:53:43;6.80;;;3.30;;
51616;SDS011;37697;52.588;13.394;2023-04-28T08:59:16;8.40;;;3.30;;
51616;SDS011;37697;52.588;13.394;2023-04-28T09:04:42;5.80;;;3.00;;
51616;SDS011;37697;52.588;13.394;2023-04-28T09:10:20;7.70;;;3.00;;
51616;SDS011;37697;52.588;13.394;2023-04-28T09:15:47;10.60;;;3.80;;
51616;SDS011;37697;52.588;13.394;2023-04-28T09:21:13;6.00;;;3.00;;
51616;SDS011;37697;52.588;13.394;2023-04-28T09:26:48;5.40;;;2.80;;
51616;SDS011;37697;52.588;13.394;2023-04-28T09:32:14;6.70;;;3.70;;
51616;SDS011;37697;52.588;13.394;2023-04-28T09:37:41;7.10;;;2.90;;
51616;SDS011;37697;52.588;13.394;2023-04-28T09:43:10;9.80;;;4.10;;
51616;SDS011;37697;52.588;13.394;2023-04-28T09:48:49;7.50;;;3.50;;
51616;SDS011;37697;52.588;13.394;2023-04-28T09:54:25;6.40;;;3.40;;
51616;SDS011;37697;52.588;13.394;2023-04-28T09:59:53;8.60;;;3.70;;
51616;SDS011;37697;52.588;13.394;2023-04-28T10:05:20;6.20;;;3.80;;
51616;SDS011;37697;52.588;13.394;2023-04-28T10:10:41;7.00;;;3.40;;
51616;SDS011;37697;52.588;13.394;2023-04-28T10:16:08;7.50;;;3.40;;
51616;SDS011;37697;52.588;13.394;2023-04-28T10:21:36;5.20;;;3.40;;
51616;SDS011;37697;52.588;13.394;2023-04-28T10:27:10;8.50;;;4.60;;
51616;SDS011;37697;52.588;13.394;2023-04-28T10:32:37;7.40;;;3.60;;
51616;SDS011;37697;52.588;13.394;2023-04-28T10:38:03;7.10;;;4.20;;
51616;SDS011;37697;52.588;13.394;2023-04-28T10:43:34;6.10;;;3.50;;
51616;SDS011;37697;52.588;13.394;2023-04-28T10:49:01;5.90;;;3.20;;
51616;SDS011;37697;52.588;13.394;2023-04-28T10:54:26;9.00;;;4.60;;
51616;SDS011;37697;52.588;13.394;2023-04-28T10:59:52;7.60;;;3.90;;
51616;SDS011;37697;52.588;13.394;2023-04-28T11:12:02;6.80;;;4.00;;
51616;SDS011;37697;52.588;13.394;2023-04-28T11:17:35;7.70;;;3.70;;
51616;SDS011;37697;52.588;13.394;2023-04-28T11:23:05;7.80;;;4.10;;
51616;SDS011;37697;52.588;13.394;2023-04-28T11:28:32;7.20;;;4.00;;
51616;SDS011;37697;52.588;13.394;2023-04-28T11:33:59;7.40;;;3.50;;
51616;SDS011;37697;52.588;13.394;2023-04-28T11:39:27;6.60;;;3.60;;
51616;SDS011;37697;52.588;13.394;2023-04-28T11:44:54;11.20;;;4.30;;
51616;SDS011;37697;52.588;13.394;2023-04-28T11:56:07;7.70;;;3.90;;
51616;SDS011;37697;52.588;13.394;2023-04-28T12:01:34;8.50;;;3.80;;
51616;SDS011;37697;52.588;13.394;2023-04-28T12:07:09;9.80;;;3.50;;
51616;SDS011;37697;52.588;13.394;2023-04-28T12:12:36;8.30;;;3.90;;
51616;SDS011;37697;52.588;13.394;2023-04-28T12:18:09;9.60;;;3.60;;
51616;SDS011;37697;52.588;13.394;2023-04-28T12:23:35;6.70;;;3.70;;
51616;SDS011;37697;52.588;13.394;2023-04-28T12:29:01;6.10;;;3.00;;
51616;SDS011;37697;52.588;13.394;2023-04-28T12:34:26;8.10;;;4.30;;
51616;SDS011;37697;52.588;13.394;2023-04-28T12:39:52;9.90;;;4.10;;
51616;SDS011;37697;52.588;13.394;2023-04-28T12:45:18;8.00;;;3.90;;
51616;SDS011;37697;52.588;13.394;2023-04-28T12:50:44;7.90;;;3.70;;
51616;SDS011;37697;52.588;13.394;2023-04-28T12:56:10;9.30;;;4.10;;
51616;SDS011;37697;52.588;13.394;2023-04-28T13:01:35;9.60;;;4.30;;
51616;SDS011;37697;52.588;13.394;2023-04-28T13:07:02;10.30;;;4.10;;
51616;SDS011;37697;52.588;13.394;2023-04-28T13:12:27;8.00;;;3.70;;
51616;SDS011;37697;52.588;13.394;2023-04-28T13:17:46;7.10;;;4.10;;
51616;SDS011;37697;52.588;13.394;2023-04-28T13:23:12;8.90;;;3.60;;
51616;SDS011;37697;52.588;13.394;2023-04-28T13:28:38;7.60;;;4.30;;
51616;SDS011;37697;52.588;13.394;2023-04-28T13:34:04;8.00;;;4.20;;
51616;SDS011;37697;52.588;13.394;2023-04-28T13:39:30;8.50;;;4.20;;
51616;SDS011;37697;52.588;13.394;2023-04-28T13:44:56;7.20;;;3.90;;
51616;SDS011;37697;52.588;13.394;2023-04-28T13:50:25;7.70;;;3.10;;
51616;SDS011;37697;52.588;13.394;2023-04-28T13:55:51;9.90;;;4.10;;
51616;SDS011;37697;52.588;13.394;2023-04-28T14:01:17;7.50;;;3.70;;
51616;SDS011;37697;52.588;13.394;2023-04-28T14:06:42;6.20;;;2.90;;
51616;SDS011;37697;52.588;13.394;2023-04-28T14:12:08;11.20;;;4.20;;
51616;SDS011;37697;52.588;13.394;2023-04-28T14:17:34;10.10;;;4.20;;
51616;SDS011;37697;52.588;13.394;2023-04-28T14:23:00;7.20;;;4.60;;
51616;SDS011;37697;52.588;13.394;2023-04-28T14:28:26;6.70;;;3.90;;
51616;SDS011;37697;52.588;13.394;2023-04-28T14:33:52;8.10;;;4.00;;
51616;SDS011;37697;52.588;13.394;2023-04-28T14:39:18;6.70;;;3.60;;
51616;SDS011;37697;52.588;13.394;2023-04-28T14:44:44;6.60;;;3.60;;
51616;SDS011;37697;52.588;13.394;2023-04-28T14:50:10;7.10;;;3.30;;
51616;SDS011;37697;52.588;13.394;2023-04-28T14:55:35;10.10;;;4.40;;
51616;SDS011;37697;52.588;13.394;2023-04-28T15:01:21;7.70;;;3.50;;
51616;SDS011;37697;52.588;13.394;2023-04-28T15:06:47;6.30;;;4.00;;
51616;SDS011;37697;52.588;13.394;2023-04-28T15:12:13;6.50;;;3.20;;
51616;SDS011;37697;52.588;13.394;2023-04-28T15:17:38;7.50;;;3.90;;
51616;SDS011;37697;52.588;13.394;2023-04-28T15:23:03;7.90;;;4.00;;
51616;SDS011;37697;52.588;13.394;2023-04-28T15:28:30;8.50;;;4.70;;
51616;SDS011;37697;52.588;13.394;2023-04-28T15:33:56;11.00;;;4.80;;
51616;SDS011;37697;52.588;13.394;2023-04-28T15:39:23;4.30;;;3.10;;
51616;SDS011;37697;52.588;13.394;2023-04-28T15:44:48;9.20;;;3.40;;
51616;SDS011;37697;52.588;13.394;2023-04-28T15:50:14;7.80;;;4.40;;
51616;SDS011;37697;52.588;13.394;2023-04-28T15:55:41;7.10;;;3.30;;
51616;SDS011;37697;52.588;13.394;2023-04-28T16:01:06;5.70;;;3.40;;
51616;SDS011;37697;52.588;13.394;2023-04-28T16:06:32;7.10;;;3.80;;
51616;SDS011;37697;52.588;13.394;2023-04-28T16:11:58;12.40;;;4.50;;
51616;SDS011;37697;52.588;13.394;2023-04-28T16:17:24;7.10;;;3.90;;
51616;SDS011;37697;52.588;13.394;2023-04-28T16:22:49;7.90;;;4.40;;
51616;SDS011;37697;52.588;13.394;2023-04-28T16:28:17;8.60;;;4.50;;
51616;SDS011;37697;52.588;13.394;2023-04-28T16:33:34;7.30;;;4.10;;
51616;SDS011;37697;52.588;13.394;2023-04-28T16:38:59;9.80;;;4.70;;
51616;SDS011;37697;52.588;13.394;2023-04-28T16:44:25;11.20;;;6.20;;
51616;SDS011;37697;52.588;13.394;2023-04-28T16:49:53;8.50;;;5.30;;
51616;SDS011;37697;52.588;13.394;2023-04-28T16:55:19;8.40;;;4.50;;
51616;SDS011;37697;52.588;13.394;2023-04-28T17:00:46;10.50;;;4.80;;
51616;SDS011;37697;52.588;13.394;2023-04-28T17:05:54;8.40;;;4.90;;
51616;SDS011;37697;52.588;13.394;2023-04-28T17:11:00;10.60;;;6.40;;
51616;SDS011;37697;52.588;13.394;2023-04-28T17:16:07;9.10;;;5.30;;
51616;SDS011;37697;52.588;13.394;2023-04-28T17:21:14;8.00;;;5.50;;
51616;SDS011;37697;52.588;13.394;2023-04-28T17:26:20;8.50;;;5.50;;
51616;SDS011;37697;52.588;13.394;2023-04-28T17:31:26;10.10;;;6.20;;
51616;SDS011;37697;52.588;13.394;2023-04-28T17:36:32;8.60;;;6.10;;
51616;SDS011;37697;52.588;13.394;2023-04-28T17:41:38;9.00;;;6.30;;
51616;SDS011;37697;52.588;13.394;2023-04-28T17:46:43;11.00;;;6.70;;
51616;SDS011;37697;52.588;13.394;2023-04-28T17:51:49;7.80;;;6.30;;
51616;SDS011;37697;52.588;13.394;2023-04-28T17:56:54;9.40;;;6.60;;
51616;SDS011;37697;52.588;13.394;2023-04-28T18:01:59;9.90;;;6.40;;
51616;SDS011;37697;52.588;13.394;2023-04-28T18:07:05;8.40;;;6.60;;
51616;SDS011;37697;52.588;13.394;2023-04-28T18:12:10;9.90;;;7.30;;
51616;SDS011;37697;52.588;13.394;2023-04-28T18:17:16;9.70;;;7.60;;
51616;SDS011;37697;52.588;13.394;2023-04-28T18:22:21;10.80;;;6.50;;
51616;SDS011;37697;52.588;13.394;2023-04-28T18:27:27;12.30;;;6.60;;
51616;SDS011;37697;52.588;13.394;2023-04-28T18:32:32;8.90;;;6.10;;
51616;SDS011;37697;52.588;13.394;2023-04-28T18:37:38;12.60;;;6.50;;
51616;SDS011;37697;52.588;13.394;2023-04-28T18:42:45;9.70;;;6.70;;
51616;SDS011;37697;52.588;13.394;2023-04-28T18:47:51;8.40;;;5.90;;
51616;SDS011;37697;52.588;13.394;2023-04-28T18:52:58;7.80;;;5.20;;
51616;SDS011;37697;52.588;13.394;2023-04-28T18:58:04;8.80;;;5.50;;
51616;SDS011;37697;52.588;13.394;2023-04-28T19:03:10;9.60;;;6.10;;
51616;SDS011;37697;52.588;13.394;2023-04-28T19:08:16;8.50;;;5.70;;
51616;SDS011;37697;52.588;13.394;2023-04-28T19:13:21;8.30;;;5.80;;
51616;SDS011;37697;52.588;13.394;2023-04-28T19:18:27;7.70;;;5.90;;
51616;SDS011;37697;52.588;13.394;2023-04-28T19:23:35;8.30;;;6.00;;
51616;SDS011;37697;52.588;13.394;2023-04-28T19:28:42;10.30;;;7.80;;
51616;SDS011;37697;52.588;13.394;2023-04-28T19:33:47;9.70;;;7.50;;
51616;SDS011;37697;52.588;13.394;2023-04-28T19:38:53;8.30;;;6.70;;
51616;SDS011;37697;52.588;13.394;2023-04-28T19:43:59;9.90;;;7.60;;
51616;SDS011;37697;52.588;13.394;2023-04-28T19:49:04;10.70;;;8.00;;
51616;SDS011;37697;52.588;13.394;2023-04-28T19:54:10;10.60;;;6.90;;
51616;SDS011;37697;52.588;13.394;2023-04-28T19:59:17;15.90;;;11.60;;
51616;SDS011;37697;52.588;13.394;2023-04-28T20:04:23;11.40;;;8.80;;
51616;SDS011;37697;52.588;13.394;2023-04-28T20:09:28;9.90;;;7.50;;
51616;SDS011;37697;52.588;13.394;2023-04-28T20:14:35;8.70;;;6.10;;
51616;SDS011;37697;52.588;13.394;2023-04-28T20:19:40;7.30;;;5.30;;
51616;SDS011;37697;52.588;13.394;2023-04-28T20:24:47;8.90;;;5.50;;
51616;SDS011;37697;52.588;13.394;2023-04-28T20:29:52;8.50;;;5.10;;
51616;SDS011;37697;52.588;13.394;2023-04-28T20:34:58;8.70;;;5.30;;
51616;SDS011;37697;52.588;13.394;2023-04-28T20:40:05;8.50;;;5.00;;
51616;SDS011;37697;52.588;13.394;2023-04-28T20:45:13;8.80;;;5.40;;
51616;SDS011;37697;52.588;13.394;2023-04-28T20:50:20;7.60;;;5.60;;
51616;SDS011;37697;52.588;13.394;2023-04-28T20:55:26;10.70;;;6.70;;
51616;SDS011;37697;52.588;13.394;2023-04-28T21:00:31;10.20;;;6.50;;
51616;SDS011;37697;52.588;13.394;2023-04-28T21:05:41;10.50;;;7.00;;
51616;SDS011;37697;52.588;13.394;2023-04-28T21:10:49;9.70;;;6.90;;
51616;SDS011;37697;52.588;13.394;2023-04-28T21:15:54;9.20;;;5.50;;
51616;SDS011;37697;52.588;13.394;2023-04-28T21:21:01;8.70;;;5.40;;
51616;SDS011;37697;52.588;13.394;2023-04-28T21:26:07;9.70;;;5.40;;
51616;SDS011;37697;52.588;13.394;2023-04-28T21:31:12;8.50;;;5.40;;
51616;SDS011;37697;52.588;13.394;2023-04-28T21:36:18;8.00;;;4.50;;
51616;SDS011;37697;52.588;13.394;2023-04-28T21:41:24;9.30;;;5.60;;
51616;SDS011;37697;52.588;13.394;2023-04-28T21:46:29;8.40;;;5.40;;
51616;SDS011;37697;52.588;13.394;2023-04-28T21:51:35;8.50;;;6.00;;
51616;SDS011;37697;52.588;13.394;2023-04-28T21:56:40;8.80;;;5.30;;
51616;SDS011;37697;52.588;13.394;2023-04-28T22:01:46;8.50;;;5.90;;
51616;SDS011;37697;52.588;13.394;2023-04-28T22:06:54;11.70;;;6.00;;
51616;SDS011;37697;52.588;13.394;2023-04-28T22:12:00;7.60;;;5.60;;
51616;SDS011;37697;52.588;13.394;2023-04-28T22:17:06;8.10;;;5.50;;
51616;SDS011;37697;52.588;13.394;2023-04-28T22:22:11;7.90;;;6.10;;
51616;SDS011;37697;52.588;13.394;2023-04-28T22:27:17;7.40;;;5.30;;
51616;SDS011;37697;52.588;13.394;2023-04-28T22:32:22;6.60;;;5.50;;
51616;SDS011;37697;52.588;13.394;2023-04-28T22:37:27;7.70;;;4.80;;
51616;SDS011;37697;52.588;13.394;2023-04-28T22:42:35;7.10;;;5.60;;
51616;SDS011;37697;52.588;13.394;2023-04-28T22:47:41;5.50;;;4.60;;
51616;SDS011;37697;52.588;13.394;2023-04-28T22:52:47;7.10;;;5.10;;
51616;SDS011;37697;52.588;13.394;2023-04-28T22:57:52;7.50;;;5.30;;
51616;SDS011;37697;52.588;13.394;2023-04-28T23:02:58;7.30;;;5.30;;
51616;SDS011;37697;52.588;13.394;2023-04-28T23:08:04;6.40;;;4.80;;
51616;SDS011;37697;52.588;13.394;2023-04-28T23:13:09;9.30;;;6.00;;
51616;SDS011;37697;52.588;13.394;2023-04-28T23:18:15;7.50;;;4.60;;
51616;SDS011;37697;52.588;13.394;2023-04-28T23:23:21;7.20;;;5.10;;
51616;SDS011;37697;52.588;13.394;2023-04-28T23:28:26;8.20;;;5.40;;
51616;SDS011;37697;52.588;13.394;2023-04-28T23:33:31;6.80;;;5.30;;
51616;SDS011;37697;52.588;13.394;2023-04-28T23:38:37;6.90;;;5.40;;
51616;SDS011;37697;52.588;13.394;2023-04-28T23:43:42;7.40;;;4.80;;
51616;SDS011;37697;52.588;13.394;2023-04-28T23:48:47;6.40;;;4.90;;
51616;SDS011;37697;52.588;13.394;2023-04-28T23:53:53;7.80;;;5.20;;
51616;SDS011;37697;52.588;13.394;2023-04-28T23:58:59;7.30;;;4.80;;
